Time;durP1;ratioP1;P1;durP2;ratioP2;P2;SDS_P1;SDS_P2;PMS_P1;PMS_P2;Temp;Humidity;BMP_temperature;BMP_pressure;BME280_temperature;BME280_humidity;BME280_pressure;Samples;Min_cycle;Max_cycle;Signal;HPM_P1;HPM_P2
2022/09/16 00:05:11;;;;;;;0.20;0.20;;;;;;;18.47;91.18;100521.78;20719726;28;20107;-75
2022/09/16 00:15:13;;;;;;;0.10;0.10;;;;;;;18.41;91.39;100518.69;20718753;28;20046;-75
2022/09/16 00:25:15;;;;;;;0.10;0.10;;;;;;;18.55;91.44;100548.84;20718335;28;20073;-75
2022/09/16 00:35:16;;;;;;;0.10;0.10;;;;;;;18.30;91.28;100513.50;20683570;28;20104;-76
2022/09/16 00:45:20;;;;;;;0.20;0.10;;;;;;;18.53;91.31;100559.78;20717413;28;20068;-75
2022/09/16 00:55:27;;;;;;;0.10;0.10;;;;;;;18.53;91.29;100562.47;20716102;28;20046;-75
2022/09/16 01:05:29;;;;;;;0.10;0.10;;;;;;;18.53;91.16;100565.19;20714022;28;20081;-74
2022/09/16 01:15:33;;;;;;;0.10;0.10;;;;;;;18.53;91.18;100540.06;20715055;28;20523;-75
2022/09/16 01:25:59;;;;;;;0.03;0.03;;;;;;;18.52;91.33;100544.59;20714755;28;20128;-74
2022/09/16 01:36:26;;;;;;;0.10;0.10;;;;;;;18.42;91.15;100538.41;20713951;28;20380;-75
2022/09/16 01:46:40;;;;;;;0.30;0.20;;;;;;;18.51;91.20;100539.34;20729441;28;20060;-75
2022/09/16 01:56:51;;;;;;;0.25;0.20;;;;;;;18.37;91.26;100517.28;20729380;28;20049;-75
2022/09/16 02:06:54;;;;;;;0.20;0.10;;;;;;;18.33;91.12;100506.94;20729021;28;20510;-74
2022/09/16 02:17:18;;;;;;;0.17;0.10;;;;;;;18.50;91.22;100527.75;20726390;28;20049;-74
2022/09/16 02:27:20;;;;;;;0.10;0.10;;;;;;;18.50;91.20;100525.03;20728094;28;20052;-75
2022/09/16 02:37:32;;;;;;;0.35;0.20;;;;;;;18.50;91.14;100526.88;20709420;28;20049;-74
2022/09/16 02:47:57;;;;;;;0.45;0.20;;;;;;;18.49;91.03;100528.75;20705573;28;20050;-75
2022/09/16 02:57:59;;;;;;;0.20;0.10;;;;;;;18.35;91.22;100513.91;20703998;28;20053;-78
2022/09/16 03:08:02;;;;;;;0.10;0.10;;;;;;;18.45;91.05;100526.47;20721025;28;22330;-74
2022/09/16 03:18:27;;;;;;;0.17;0.13;;;;;;;18.49;91.00;100538.66;20786515;28;20107;-75
2022/09/16 03:28:50;;;;;;;0.13;0.13;;;;;;;18.49;91.10;100544.03;20702684;28;20062;-74
2022/09/16 03:38:52;;;;;;;0.10;0.10;;;;;;;18.47;91.05;100533.44;20784530;28;20405;-74
2022/09/16 03:48:55;;;;;;;0.00;0.00;;;;;;;18.47;90.97;100527.19;20783289;28;20053;-74
2022/09/16 03:58:57;;;;;;;0.10;0.10;;;;;;;18.47;91.15;100516.38;20714675;28;20385;-74
2022/09/16 04:09:01;;;;;;;0.20;0.20;;;;;;;18.47;91.17;100521.78;20718846;28;20560;-74
2022/09/16 04:19:03;;;;;;;0.63;0.10;;;;;;;18.47;90.92;100519.09;20717395;28;20069;-74
2022/09/16 04:29:05;;;;;;;0.20;0.10;;;;;;;18.47;90.82;100513.69;20716927;28;20050;-74
2022/09/16 04:39:07;;;;;;;0.10;0.10;;;;;;;18.45;90.89;100508.47;20715856;28;20050;-74
2022/09/16 04:49:11;;;;;;;0.10;0.10;;;;;;;18.45;90.89;100500.38;20716663;28;20061;-75
2022/09/16 04:59:13;;;;;;;0.40;0.10;;;;;;;18.45;91.01;100499.53;20715950;28;20518;-74
2022/09/16 05:09:14;;;;;;;0.05;0.05;;;;;;;18.44;90.83;100504.09;20715613;28;20050;-74
2022/09/16 05:19:16;;;;;;;0.20;0.20;;;;;;;18.44;90.68;100497.81;20714268;28;20057;-74
2022/09/16 05:29:17;;;;;;;0.13;0.10;;;;;;;18.44;90.79;100495.13;20712815;28;20058;-74
2022/09/16 05:39:19;;;;;;;0.17;0.10;;;;;;;18.43;90.84;100502.38;20696720;28;20046;-75
2022/09/16 05:49:25;;;;;;;0.10;0.10;;;;;;;18.43;90.73;100520.38;20712363;28;20073;-75
2022/09/16 05:59:26;;;;;;;0.38;0.10;;;;;;;18.43;90.60;100526.66;20712853;28;20059;-74
2022/09/16 06:09:28;;;;;;;0.17;0.17;;;;;;;18.41;90.51;100526.78;20711726;28;20496;-74
2022/09/16 06:19:29;;;;;;;0.03;0.03;;;;;;;18.43;90.65;100539.25;20711101;28;20050;-74
2022/09/16 06:29:31;;;;;;;0.30;0.15;;;;;;;18.41;90.51;100521.38;20721920;28;20072;-75
2022/09/16 06:39:32;;;;;;;0.10;0.10;;;;;;;18.40;90.63;100514.31;20725092;28;20050;-74
2022/09/16 06:49:34;;;;;;;0.17;0.17;;;;;;;18.40;90.57;100514.31;20707513;28;20507;-75
2022/09/16 06:59:35;;;;;;;0.47;0.10;;;;;;;18.40;90.58;100508.91;20724843;28;20103;-75
2022/09/16 07:09:38;;;;;;;0.40;0.30;;;;;;;18.41;90.58;100505.22;20724531;28;20418;-76
2022/09/16 07:19:41;;;;;;;0.10;0.10;;;;;;;18.41;90.33;100516.00;20705216;28;20050;-76
2022/09/16 07:29:42;;;;;;;0.10;0.10;;;;;;;18.41;90.37;100509.78;20721763;28;20103;-75
2022/09/16 07:39:44;;;;;;;0.17;0.17;;;;;;;18.41;90.54;100520.56;20719496;28;20064;-78
2022/09/16 07:49:46;;;;;;;0.10;0.10;;;;;;;18.43;90.27;100528.47;20721536;28;20046;-74
2022/09/16 07:59:47;;;;;;;0.10;0.10;;;;;;;18.35;90.35;100513.91;20720342;28;20060;-74
2022/09/16 08:09:49;;;;;;;0.40;0.00;;;;;;;18.45;90.49;100523.78;20719012;28;20046;-74
2022/09/16 08:19:54;;;;;;;0.10;0.10;;;;;;;18.36;90.23;100510.22;20717416;28;20053;-74
2022/09/16 08:29:55;;;;;;;0.20;0.20;;;;;;;18.46;90.28;100531.72;20717153;28;20533;-75
2022/09/16 08:39:57;;;;;;;0.10;0.10;;;;;;;18.50;90.14;100532.25;20699632;28;20383;-74
2022/09/16 08:50:01;;;;;;;0.10;0.10;;;;;;;18.52;90.08;100527.56;20698375;28;20045;-74
2022/09/16 09:00:14;;;;;;;0.20;0.20;;;;;;;18.51;89.96;100523.19;20698461;28;20099;-74
2022/09/16 09:10:36;;;;;;;0.40;0.10;;;;;;;18.44;89.88;100522.09;20760404;28;20152;-74
2022/09/16 09:20:44;;;;;;;0.68;0.25;;;;;;;18.53;89.76;100538.22;20761770;28;20052;-74
2022/09/16 09:31:30;;;;;;;0.25;0.20;;;;;;;18.54;89.80;100528.28;20729105;28;20115;-75
2022/09/16 09:42:14;;;;;;;0.20;0.13;;;;;;;18.47;89.71;100516.38;20777546;28;20148;-74
2022/09/16 09:52:30;;;;;;;0.35;0.20;;;;;;;18.32;89.76;100500.72;20683515;28;20057;-75
2022/09/16 10:02:32;;;;;;;0.32;0.17;;;;;;;18.49;89.67;100520.66;20720948;28;20049;-74
2022/09/16 10:12:35;;;;;;;1.00;0.30;;;;;;;18.53;89.78;100530.13;20729088;28;20074;-74
2022/09/16 10:22:36;;;;;;;0.20;0.20;;;;;;;18.53;89.69;100510.41;20726534;28;20099;-74
2022/09/16 10:33:06;;;;;;;0.45;0.10;;;;;;;18.54;89.49;100512.09;20727301;28;20072;-74
2022/09/16 10:43:13;;;;;;;0.47;0.13;;;;;;;18.53;89.70;100515.78;20722650;28;20411;-74
2022/09/16 10:53:26;;;;;;;0.47;0.20;;;;;;;18.49;89.56;100517.97;20691776;28;20112;-74
2022/09/16 11:03:46;;;;;;;0.38;0.20;;;;;;;18.53;89.44;100505.00;20723022;28;20057;-74
2022/09/16 11:13:58;;;;;;;0.40;0.20;;;;;;;18.55;89.44;100497.63;20785124;28;20137;-74
2022/09/16 11:24:13;;;;;;;0.75;0.20;;;;;;;18.46;89.47;100476.97;20726820;28;20107;-74
2022/09/16 11:34:50;;;;;;;0.30;0.20;;;;;;;18.54;89.25;100501.31;20784998;28;20080;-74
2022/09/16 11:45:26;;;;;;;0.32;0.10;;;;;;;18.55;89.36;100503.00;20721416;28;20042;-74
2022/09/16 11:55:34;;;;;;;;;;;;;;;18.54;89.18;100522.88;20640216;28;20337;-75
2022/09/16 12:05:41;;;;;;;0.10;0.10;;;;;;;18.51;89.39;100515.97;20620758;28;19972;-75
2022/09/16 12:15:45;;;;;;;0.55;0.20;;;;;;;18.52;89.27;100506.00;20618775;28;20422;-74
2022/09/16 12:26:18;;;;;;;0.35;0.20;;;;;;;18.15;89.22;100440.41;20603319;28;20056;-74
2022/09/16 12:36:24;;;;;;;0.28;0.20;;;;;;;18.53;89.08;100489.69;20617644;28;20050;-74
2022/09/16 12:46:37;;;;;;;0.28;0.20;;;;;;;18.53;89.25;100486.13;20737122;28;20061;-74
2022/09/16 12:56:45;;;;;;;0.38;0.10;;;;;;;18.53;88.93;100495.09;20778366;28;20048;-74
2022/09/16 13:06:49;;;;;;;0.10;0.10;;;;;;;17.93;89.01;100404.75;20761659;28;20379;-74
2022/09/16 13:16:56;;;;;;;0.28;0.10;;;;;;;18.53;89.14;100472.66;20777495;28;20053;-75
2022/09/16 13:26:58;;;;;;;0.40;0.17;;;;;;;18.38;89.17;100467.78;20696665;28;20576;-74
2022/09/16 13:36:59;;;;;;;0.80;0.10;;;;;;;18.54;88.96;100490.53;20692601;28;20057;-74
2022/09/16 13:47:09;;;;;;;0.30;0.30;;;;;;;18.11;88.99;100444.38;20793759;28;20259;-74
2022/09/16 13:57:26;;;;;;;0.30;0.10;;;;;;;18.54;88.97;100498.63;20794672;28;20053;-74
2022/09/16 14:07:43;;;;;;;0.28;0.15;;;;;;;18.54;88.84;100477.91;20794800;28;20049;-74
2022/09/16 14:17:48;;;;;;;0.47;0.20;;;;;;;18.48;89.18;100493.84;20793067;28;20045;-74
2022/09/16 14:27:52;;;;;;;0.65;0.28;;;;;;;18.49;88.83;100517.09;20777020;28;20041;-75
2022/09/16 14:38:01;;;;;;;0.10;0.10;;;;;;;18.53;88.90;100505.00;20793754;28;20361;-74
2022/09/16 14:48:06;;;;;;;0.22;0.20;;;;;;;18.39;88.86;100480.25;20793406;28;20498;-74
2022/09/16 14:58:09;;;;;;;0.82;0.20;;;;;;;18.37;88.83;100471.47;20806962;28;20046;-74
2022/09/16 15:08:18;;;;;;;0.70;0.30;;;;;;;18.51;88.84;100504.31;20807028;28;20057;-74
2022/09/16 15:18:27;;;;;;;0.30;0.20;;;;;;;18.51;88.87;100517.78;20722452;28;20497;-74
2022/09/16 15:28:29;;;;;;;0.82;0.30;;;;;;;18.37;88.81;100493.03;20805110;28;20057;-74
2022/09/16 15:38:30;;;;;;;0.60;0.30;;;;;;;18.50;88.89;100516.09;20804007;28;20045;-75
2022/09/16 15:48:41;;;;;;;0.45;0.20;;;;;;;17.90;88.73;100433.81;20775402;28;20057;-74
2022/09/16 15:58:46;;;;;;;0.35;0.25;;;;;;;18.43;88.80;100496.13;20720116;28;20069;-75
2022/09/16 16:08:50;;;;;;;0.17;0.10;;;;;;;18.48;88.91;100505.47;20718482;28;20042;-74
2022/09/16 16:18:51;;;;;;;0.38;0.22;;;;;;;18.49;88.78;100517.09;20719420;28;20419;-74
2022/09/16 16:28:52;;;;;;;0.45;0.20;;;;;;;18.47;88.77;100525.34;20718794;28;20073;-74
2022/09/16 16:38:54;;;;;;;0.28;0.22;;;;;;;18.48;88.92;100515.41;20717343;28;20054;-75
2022/09/16 16:48:55;;;;;;;0.43;0.22;;;;;;;18.46;88.81;100507.47;20717069;28;20062;-74
2022/09/16 16:58:57;;;;;;;0.80;0.22;;;;;;;18.45;88.82;100516.56;20714770;28;20045;-75
2022/09/16 17:08:59;;;;;;;0.43;0.10;;;;;;;18.46;88.50;100512.00;20714228;28;20073;-74
2022/09/16 17:19:02;;;;;;;0.85;0.50;;;;;;;18.45;88.81;100531.88;20715308;28;20048;-74
2022/09/16 17:29:03;;;;;;;0.60;0.20;;;;;;;18.31;88.79;100531.38;20714887;28;20053;-74
2022/09/16 17:39:19;;;;;;;0.43;0.20;;;;;;;18.45;88.83;100531.88;20714564;28;20046;-74
2022/09/16 17:49:22;;;;;;;1.00;0.20;;;;;;;18.43;88.96;100529.34;20714247;28;20058;-75
2022/09/16 17:59:24;;;;;;;0.50;0.30;;;;;;;18.43;89.11;100531.16;20712052;28;20054;-74
2022/09/16 18:09:26;;;;;;;0.43;0.25;;;;;;;18.42;89.04;100524.94;20711663;28;20457;-75
2022/09/16 18:19:27;;;;;;;0.50;0.15;;;;;;;18.35;89.20;100542.72;20711686;28;20050;-74
2022/09/16 18:29:30;;;;;;;0.73;0.20;;;;;;;18.41;89.01;100569.06;20728263;28;20057;-74
2022/09/16 18:39:31;;;;;;;0.20;0.17;;;;;;;18.40;88.89;100570.91;20709687;28;20133;-74
2022/09/16 18:49:33;;;;;;;0.20;0.13;;;;;;;18.39;88.86;100566.50;20724687;28;20064;-74
2022/09/16 18:59:35;;;;;;;0.40;0.20;;;;;;;18.38;88.92;100564.81;20724140;28;20063;-75
2022/09/16 19:09:40;;;;;;;0.20;0.10;;;;;;;18.40;88.78;100572.75;20724845;28;20042;-74
2022/09/16 19:19:41;;;;;;;0.93;0.63;;;;;;;18.37;88.94;100608.94;20723504;28;20136;-74
2022/09/16 19:29:44;;;;;;;0.75;0.17;;;;;;;18.37;88.88;100606.22;20722311;28;20426;-74
2022/09/16 19:39:45;;;;;;;0.70;0.30;;;;;;;18.37;88.81;100600.84;20720856;28;20569;-74
2022/09/16 19:49:47;;;;;;;0.40;0.25;;;;;;;18.38;88.96;100610.63;20721644;28;20042;-75
2022/09/16 19:59:48;;;;;;;0.20;0.20;;;;;;;18.37;88.91;100605.41;20720790;28;20045;-74
2022/09/16 20:09:50;;;;;;;0.60;0.15;;;;;;;18.37;88.75;100608.94;20719009;28;20397;-74
2022/09/16 20:19:51;;;;;;;0.80;0.22;;;;;;;18.32;88.93;100597.75;20719122;28;20057;-75
2022/09/16 20:29:53;;;;;;;0.03;0.00;;;;;;;18.14;88.91;100580.66;20718727;28;20042;-76
2022/09/16 20:39:55;;;;;;;0.40;0.20;;;;;;;18.29;88.94;100613.34;20718121;28;20091;-74
2022/09/16 20:49:56;;;;;;;0.30;0.20;;;;;;;18.35;89.05;100624.41;20695863;28;20057;-74
2022/09/16 20:59:58;;;;;;;0.55;0.20;;;;;;;18.35;89.16;100643.25;20695222;28;20056;-74
2022/09/16 21:10:00;;;;;;;0.63;0.20;;;;;;;18.35;88.82;100661.28;20712144;28;20551;-74
2022/09/16 21:20:02;;;;;;;0.65;0.20;;;;;;;18.34;88.79;100673.03;20711215;28;20046;-74
2022/09/16 21:30:04;;;;;;;0.32;0.20;;;;;;;18.33;88.92;100677.59;20711098;28;20056;-74
2022/09/16 21:40:08;;;;;;;0.20;0.20;;;;;;;18.30;88.99;100671.63;20685217;28;20056;-74
2022/09/16 21:50:11;;;;;;;0.50;0.50;;;;;;;18.33;89.10;100680.28;20693828;28;20121;-74
2022/09/16 22:00:13;;;;;;;0.35;0.30;;;;;;;18.33;88.95;100685.69;20719327;28;20396;-75
2022/09/16 22:10:14;;;;;;;0.70;0.20;;;;;;;18.15;88.67;100665.84;20725426;28;20590;-74
2022/09/16 22:20:16;;;;;;;0.40;0.20;;;;;;;18.31;88.99;100686.81;20675456;28;20599;-75
2022/09/16 22:30:17;;;;;;;1.00;0.30;;;;;;;18.20;88.78;100663.59;20724415;28;20057;-74
2022/09/16 22:40:21;;;;;;;0.40;0.20;;;;;;;18.24;88.84;100679.28;20723160;28;20046;-75
2022/09/16 22:50:23;;;;;;;0.68;0.20;;;;;;;18.30;89.07;100688.66;20722509;28;20057;-74
2022/09/16 23:00:24;;;;;;;0.17;0.17;;;;;;;18.18;89.03;100668.28;20704830;28;20045;-75
2022/09/16 23:10:26;;;;;;;0.60;0.20;;;;;;;18.09;88.72;100651.94;20703802;28;20127;-75
2022/09/16 23:20:27;;;;;;;0.65;0.20;;;;;;;18.29;88.78;100686.09;20720219;28;20120;-74
2022/09/16 23:30:28;;;;;;;0.20;0.20;;;;;;;18.28;88.93;100682.56;20719060;28;20495;-75
2022/09/16 23:40:30;;;;;;;0.90;0.30;;;;;;;18.29;88.81;100696.88;20718474;28;20085;-79
2022/09/16 23:50:32;;;;;;;0.43;0.20;;;;;;;18.18;88.90;100684.44;20718322;28;20061;-74
